Riverside, CA (92503)

2:26 PM PST on March 06, 2015 (GMT -0800)
Arlington Heights | Change Station
CLOSE
Current Station
Personal Weather Station
Location: Riverside, CA
Elevation: 902 ft
Nearby Weather Stations
Active Advisory: Wind Advisory Active Notice: Public Information Statement

Elev 902 ft 33.91 °N, 117.42 °W | Updated 8 minutes ago

Clear
Clear
79.9 °F
Feels Like 78 °F
N
6.0
Wind Variable Wind from North
Gusts 19.0 mph

Today
High -- | Low -- °F
--% Chance of Precip.
Yesterday
High -- | Low -- °F
Precip. -- in
6:12 AM 5:50 PM
Full, 99% visible
Pressure 30.00 in
Visibility 10.0 miles
Clouds Clear
Heat Index 78 °F
Dew Point 21 °F
Humidity 11%
Rainfall in
Snow Depth Not available.
UV 6 out of 12
Pollen 9.20 out of 12
Air Quality Not available.
Flu Activity Not available.
METAR KRAL 062153Z 02011G26KT 10SM CLR 28/M11 A3003 RMK AO2 PK WND 02026/2148 SLP157 T02781106

More Conditions Fewer Conditions

Pressure 30.00 in
Visibility 10.0 miles
Clouds Clear
Heat Index 78 °F
Dew Point 21 °F
Humidity 11%
Rainfall in
Snow Depth Not available.
UV 6 out of 12
Pollen 9.20 out of 12
Air Quality Not available.
Flu Activity Not available.
METAR KRAL 062153Z 02011G26KT 10SM CLR 28/M11 A3003 RMK AO2 PK WND 02026/2148 SLP157 T02781106

More Conditions Fewer Conditions

10-Day Weather Forecast

Almanac

Astronomy

Mar. 06, 2015 Rise Set
Actual Time
Civil Twilight
Nautical Twilight
Astronomical Twilight
Moon
Length of Visible Light
Length of Day
Tomorrow will be .
, % of the Moon is Illuminated

Today's Extremes

State Highs State Lows

Community

WunderPhotos

Upload Photos

1,803,420 photos uploaded!

WunderBlogs® & News

Nearby

Air Quality

  Air Quality AQ Index Pollutant
Not available.

Snow Depth

Station Depth Elevation

Earthquake Activity

City Distance Mag. Time & Date
Minimum magnitude displayed is 2.5.

Coastal Water Temperatures

Place Temperature

Nearby Weather Stations

Wind Advisory
Statement as of 1:49 PM PST on March 06, 2015

... Wind Advisory remains in effect until noon PST Saturday...

* winds... areas of northeast to east winds 20 to 30 mph with
gusts to 50 mph.

* Location... strongest winds below passes and canyons and near
coastal mountain slopes.

* Timing... through Saturday morning.

* Impacts... strong winds will make driving difficult for high
profile vehicles.

Precautionary/preparedness actions...

A Wind Advisory means that winds of 35 mph are expected. Winds
this strong can make driving difficult... especially for high
profile vehicles. Use extra caution.